Hamletsburg, Illinois
Current Conditions -  °F | °C
As of 5:55 PM on Saturday 22 Nov 2014 (Local Time) from KM30 Reporting Station
Overcast Overcast  
Wind Chill: 62°   Ceiling: 5500
Heat Index: 62°   Visibility: 10mi
Dew Point: 38°   Wind: 6mph
Humidity: 42%   Direction: 170°S
Pressure: 30.03"   Gusts: NA
Location:  37.14°N, 88.45°W
Report Text: KM30 222355Z AUTO 17005KT 10SM OVC055 17/04 A3003 RMK AO2 T01650036 10188 20159
Loading
Personal Weather Stations






























Interactive Weather Map New forecast layout! Learn more

10-Day Weather Forecast

Advertisements
Track Severe Weather on mobile